Atyray, Kazakhstan

5:13 PM AQTT on February 06, 2016 (GMT +0500)
Atyrau | | Change Station
CLOSE
Current Station
Airport
Location: Atyrau,
Elevation: -72 ft
Nearby Weather Stations

Elev -72 ft 47.12 °N, 51.83 °E | Updated 13 minutes ago

Mostly Cloudy
Mostly Cloudy
36 °F
Feels Like 26 °F
N
16
Wind Variable Wind from North

Today
High -- | Low -- °F
--% Chance of Precip.
Yesterday
High -- | Low -- °F
Precip. -- in
Pressure 29.68 in
Visibility 3.1 miles
Clouds Scattered Clouds 600 ft
Mostly Cloudy 16000 ft
Windchill 26 °F
Dew Point 36 °F
Humidity 100%
Rainfall 0.00 in
Snow Depth Not available.
8:52 AM 6:41 PM
Waning Crescent, 6% visible
METAR UATG 061200Z 01007MPS 5000 BR SCT006 BKN160 02/02 Q1005 R32/CLRD70 NOSIG RMK QBB200 QFE756/1008
Pressure 29.68 in
Visibility 3.1 miles
Clouds Scattered Clouds 600 ft
Mostly Cloudy 16000 ft
Windchill 26 °F
Dew Point 36 °F
Humidity 100%
Rainfall 0.00 in
Snow Depth Not available.
8:52 AM 6:41 PM
Waning Crescent, 6% visible
METAR UATG 061200Z 01007MPS 5000 BR SCT006 BKN160 02/02 Q1005 R32/CLRD70 NOSIG RMK QBB200 QFE756/1008

10-Day Weather Forecast

Almanac

Astronomy

Feb. 06, 2016 Rise Set
Actual Time
Civil Twilight
Nautical Twilight
Astronomical Twilight
Moon
Length of Visible Light
Length of Day
Tomorrow will be .
, % of the Moon is Illuminated

Today's Extremes

Country Highs Country Lows

Community

WunderPhotos

Upload Photos

1,890,944 photos uploaded!

WunderBlog® & News

Nearby

Air Quality

  Air Quality AQ Index Pollutant
Not available.

Snow Depth

Station Depth Elevation

Earthquake Activity

City Distance Mag. Time & Date
Minimum magnitude displayed is 2.5.

Coastal Water Temperatures

Place Temperature

Stations

Nearby Weather Stations

Station Location Temp. Windchill Dew Point Humidity Wind Precip. Elev Updated Type